Time;durP1;ratioP1;P1;durP2;ratioP2;P2;SDS_P1;SDS_P2;PMS_P1;PMS_P2;Temp;Humidity;BMP_temperature;BMP_pressure;BME280_temperature;BME280_humidity;BME280_pressure;Samples;Min_cycle;Max_cycle;Signal;HPM_P1;HPM_P2
2021/01/08 00:01:14;;;;;;;7.70;4.53;;;;;;;10.63;100.00;101087.06;5075236;28;20033;-74
2021/01/08 00:04:00;;;;;;;7.40;4.25;;;;;;;10.45;100.00;101084.63;5076149;28;20020;-74
2021/01/08 00:06:46;;;;;;;9.95;4.75;;;;;;;10.57;100.00;101089.75;5076425;28;20032;-74
2021/01/08 00:09:31;;;;;;;7.85;5.15;;;;;;;10.90;100.00;101091.97;5075723;28;20024;-73
2021/01/08 00:12:17;;;;;;;8.32;4.75;;;;;;;11.00;100.00;101093.56;5077022;28;20040;-74
2021/01/08 00:15:05;;;;;;;7.20;5.00;;;;;;;11.05;100.00;101094.38;5076427;28;20099;-74
2021/01/08 00:17:50;;;;;;;7.85;4.88;;;;;;;11.18;100.00;101101.22;5076508;28;20024;-73
2021/01/08 00:20:36;;;;;;;7.45;5.03;;;;;;;11.16;100.00;101108.22;5076291;28;20033;-74
2021/01/08 00:23:22;;;;;;;8.88;5.38;;;;;;;11.15;100.00;101098.63;5076330;28;20029;-73
2021/01/08 00:26:08;;;;;;;6.93;5.10;;;;;;;11.35;100.00;101104.44;5075657;28;20036;-73
2021/01/08 00:28:53;;;;;;;7.60;5.63;;;;;;;10.72;100.00;101101.81;5076869;28;20362;-73
2021/01/08 00:31:45;;;;;;;8.43;6.32;;;;;;;11.23;100.00;101109.88;5075948;28;20051;-74
2021/01/08 00:34:31;;;;;;;11.80;6.90;;;;;;;11.20;100.00;101117.78;5076284;28;20086;-74
2021/01/08 00:37:17;;;;;;;8.88;6.40;;;;;;;10.84;100.00;101105.13;5076029;28;20036;-74
2021/01/08 00:40:04;;;;;;;11.00;6.75;;;;;;;11.00;100.00;101100.56;5076016;28;20020;-74
2021/01/08 00:42:49;;;;;;;9.00;6.60;;;;;;;10.70;100.00;101099.22;5076504;28;20028;-74
2021/01/08 00:45:35;;;;;;;10.48;6.97;;;;;;;10.98;100.00;101108.47;5075879;28;20024;-73
2021/01/08 00:48:21;;;;;;;10.15;6.90;;;;;;;11.07;100.00;101117.94;5075763;28;20112;-73
2021/01/08 00:51:06;;;;;;;10.55;7.05;;;;;;;10.88;100.00;101100.75;5076411;28;20052;-74
2021/01/08 00:53:52;;;;;;;9.82;6.75;;;;;;;10.89;100.00;101078.88;5076408;28;20438;-73
2021/01/08 00:56:38;;;;;;;9.10;6.25;;;;;;;10.90;100.00;101098.97;5075865;28;20107;-74
2021/01/08 00:59:24;;;;;;;9.85;6.82;;;;;;;11.03;100.00;101095.28;5075915;28;20438;-72
2021/01/08 01:02:10;;;;;;;9.30;6.50;;;;;;;10.93;100.00;101091.91;5075948;28;20082;-73
2021/01/08 01:04:55;;;;;;;9.88;6.32;;;;;;;10.97;100.00;101090.97;5074846;28;20505;-72
2021/01/08 01:07:41;;;;;;;13.50;8.73;;;;;;;10.90;100.00;101085.84;5073322;28;20029;-73
2021/01/08 01:10:27;;;;;;;13.40;8.60;;;;;;;10.79;100.00;101080.75;5075395;28;20021;-74
2021/01/08 01:13:12;;;;;;;11.70;8.18;;;;;;;10.45;100.00;101082.03;5074869;28;20048;-74
2021/01/08 01:15:58;;;;;;;13.60;8.52;;;;;;;10.52;100.00;101088.94;5075186;28;20028;-74
2021/01/08 01:18:46;;;;;;;13.63;8.82;;;;;;;10.30;100.00;101084.81;5075237;28;20444;-74
2021/01/08 01:21:32;;;;;;;13.80;8.57;;;;;;;10.25;100.00;101089.25;5075168;28;20025;-74
2021/01/08 01:24:17;;;;;;;14.40;8.55;;;;;;;10.13;100.00;101084.13;5075102;28;20438;-74
2021/01/08 01:27:03;;;;;;;13.18;8.70;;;;;;;9.91;100.00;101074.69;5075012;28;20393;-75
2021/01/08 01:29:49;;;;;;;12.70;8.63;;;;;;;10.20;100.00;101066.63;5074842;28;20032;-74
2021/01/08 01:32:35;;;;;;;11.63;8.25;;;;;;;10.20;100.00;101072.69;5075302;28;20028;-73
2021/01/08 01:35:21;;;;;;;13.30;8.85;;;;;;;10.04;100.00;101068.47;5075187;28;20086;-74
2021/01/08 01:38:07;;;;;;;10.98;7.80;;;;;;;10.13;100.00;101065.81;5074734;28;20047;-73
2021/01/08 01:40:53;;;;;;;12.13;8.10;;;;;;;10.16;100.00;101054.44;5075251;28;20038;-74
2021/01/08 01:43:38;;;;;;;16.08;9.23;;;;;;;9.75;100.00;101058.28;5074468;28;20032;-74
2021/01/08 01:46:25;;;;;;;12.90;8.95;;;;;;;9.90;100.00;101055.50;5074701;28;20540;-74
2021/01/08 01:49:10;;;;;;;13.68;8.65;;;;;;;9.54;100.00;101054.97;5073761;28;20035;-74
2021/01/08 01:52:00;;;;;;;14.35;8.60;;;;;;;9.89;100.00;101055.53;5074443;28;20446;-74
2021/01/08 01:54:45;;;;;;;11.52;8.02;;;;;;;10.35;100.00;101062.06;5074389;28;20032;-73
2021/01/08 01:57:31;;;;;;;12.25;8.75;;;;;;;9.78;100.00;101057.38;5074535;28;20103;-73
2021/01/08 02:00:18;;;;;;;12.38;8.32;;;;;;;10.16;100.00;101063.13;5074562;28;20472;-73
2021/01/08 02:03:20;;;;;;;11.35;7.93;;;;;;;10.16;100.00;101063.13;5074366;28;20040;-73
2021/01/08 02:06:10;;;;;;;10.63;7.47;;;;;;;10.43;100.00;101062.84;5074645;28;20036;-74
2021/01/08 02:09:00;;;;;;;11.45;7.82;;;;;;;10.33;100.00;101052.50;5074961;28;20437;-73
2021/01/08 02:11:51;;;;;;;11.70;8.02;;;;;;;10.35;100.00;101045.47;5074111;28;20056;-73
2021/01/08 02:14:42;;;;;;;10.35;7.38;;;;;;;10.60;100.00;101044.31;5074303;28;20020;-72
2021/01/08 02:17:28;;;;;;;9.73;6.78;;;;;;;10.66;100.00;101044.22;5074419;28;20445;-73
2021/01/08 02:20:15;;;;;;;11.95;6.93;;;;;;;10.60;100.00;101053.03;5074223;28;20042;-73
2021/01/08 02:23:10;;;;;;;10.27;7.10;;;;;;;10.43;100.00;101060.22;5072949;28;20104;-74
2021/01/08 02:25:56;;;;;;;11.75;7.18;;;;;;;10.40;100.00;101064.66;5074099;28;20043;-73
2021/01/08 02:28:42;;;;;;;12.65;7.68;;;;;;;10.58;100.00;101054.81;5074628;28;20420;-73
2021/01/08 02:31:27;;;;;;;10.82;7.18;;;;;;;10.19;100.00;101060.50;5074033;28;20021;-74
2021/01/08 02:34:13;;;;;;;13.45;6.97;;;;;;;9.69;100.00;101053.09;5074016;28;20024;-74
2021/01/08 02:36:59;;;;;;;11.20;7.15;;;;;;;9.90;100.00;101047.66;5073305;28;20044;-74
2021/01/08 02:39:47;;;;;;;10.80;7.13;;;;;;;9.99;100.00;101054.56;5073885;28;20033;-74
2021/01/08 02:42:33;;;;;;;11.25;7.07;;;;;;;10.47;100.00;101061.94;5074100;28;20484;-74
2021/01/08 02:45:19;;;;;;;13.00;7.50;;;;;;;10.16;100.00;101063.13;5073840;28;20086;-74
2021/01/08 02:48:05;;;;;;;12.95;7.70;;;;;;;10.39;100.00;101045.44;5074308;28;20032;-74
2021/01/08 02:50:51;;;;;;;12.48;7.90;;;;;;;10.42;100.00;101041.91;5073212;28;20055;-73
2021/01/08 02:53:38;;;;;;;12.60;8.25;;;;;;;10.66;100.00;101032.00;5074034;28;20107;-74
2021/01/08 02:56:32;;;;;;;14.50;8.90;;;;;;;10.34;100.00;101034.16;5074393;28;20059;-73
2021/01/08 02:59:18;;;;;;;12.23;8.60;;;;;;;10.34;100.00;101030.66;5074154;28;20069;-73
2021/01/08 03:02:04;;;;;;;13.73;9.10;;;;;;;10.45;100.00;101042.72;5072890;28;20030;-74
2021/01/08 03:04:50;;;;;;;15.30;10.18;;;;;;;10.21;100.00;101035.19;5074075;28;20110;-74
2021/01/08 03:07:36;;;;;;;14.35;10.00;;;;;;;10.52;100.00;101028.69;5073349;28;20377;-74
2021/01/08 03:10:24;;;;;;;16.48;10.45;;;;;;;9.76;100.00;101032.97;5073236;28;20055;-74
2021/01/08 03:13:10;;;;;;;16.17;10.52;;;;;;;10.22;100.00;101030.78;5072885;28;20059;-75
2021/01/08 03:15:56;;;;;;;17.02;11.15;;;;;;;10.22;100.00;101034.28;5073450;28;20043;-73
2021/01/08 03:18:41;;;;;;;16.13;10.90;;;;;;;10.47;100.00;101032.22;5073093;28;20025;-73
2021/01/08 03:21:27;;;;;;;16.48;9.80;;;;;;;10.46;100.00;101039.25;5073648;28;20125;-74
2021/01/08 03:24:13;;;;;;;13.38;7.85;;;;;;;10.32;100.00;101033.28;5073608;28;20446;-75
2021/01/08 03:26:58;;;;;;;14.82;9.90;;;;;;;10.51;100.00;101032.19;5073578;28;20477;-74
2021/01/08 03:29:44;;;;;;;14.07;9.35;;;;;;;10.47;100.00;101027.88;5073983;28;20017;-74
2021/01/08 03:32:30;;;;;;;12.93;9.18;;;;;;;9.95;100.00;101024.94;5073492;28;20059;-74
2021/01/08 03:35:16;;;;;;;13.30;9.45;;;;;;;9.82;100.00;101023.31;5076072;28;20458;-73
2021/01/08 03:38:02;;;;;;;13.45;8.68;;;;;;;10.07;100.00;101037.06;5077207;28;20066;-74
2021/01/08 03:40:47;;;;;;;12.43;8.80;;;;;;;10.07;100.00;101040.56;5076495;28;20416;-74
2021/01/08 03:43:33;;;;;;;13.35;8.30;;;;;;;9.92;100.00;101040.66;5077569;28;20032;-74
2021/01/08 03:46:19;;;;;;;12.65;8.27;;;;;;;10.04;100.00;101043.16;5076179;28;20035;-75
2021/01/08 03:49:05;;;;;;;13.95;9.38;;;;;;;9.65;100.00;101033.06;5076859;28;20020;-74
2021/01/08 03:51:51;;;;;;;17.10;11.05;;;;;;;9.64;100.00;101041.81;5076865;28;20036;-74
2021/01/08 03:54:37;;;;;;;20.98;11.65;;;;;;;9.53;100.00;101032.31;5076083;28;20035;-73
2021/01/08 03:57:23;;;;;;;18.42;12.25;;;;;;;9.43;100.00;101044.59;5076256;28;20033;-73
2021/01/08 04:00:09;;;;;;;15.90;10.88;;;;;;;8.91;100.00;101040.59;5076037;28;20036;-74
2021/01/08 04:02:55;;;;;;;17.55;10.40;;;;;;;9.28;100.00;101041.19;5076081;28;20029;-73
2021/01/08 04:05:41;;;;;;;16.63;10.68;;;;;;;9.13;100.00;101034.34;5076758;28;20028;-74
2021/01/08 04:08:26;;;;;;;20.40;11.90;;;;;;;9.10;100.00;101046.56;5076353;28;20043;-74
2021/01/08 04:11:12;;;;;;;17.67;11.90;;;;;;;9.30;100.00;101032.50;5076664;28;20032;-74
2021/01/08 04:13:58;;;;;;;17.67;12.32;;;;;;;9.13;100.00;101043.94;5075832;28;20085;-74
2021/01/08 04:16:44;;;;;;;16.67;11.65;;;;;;;8.82;100.00;101026.72;5076395;28;20024;-73
2021/01/08 04:19:29;;;;;;;20.25;11.40;;;;;;;8.90;100.00;101015.34;5075855;28;20024;-73
2021/01/08 04:22:15;;;;;;;19.52;13.73;;;;;;;8.95;100.00;101018.78;5075761;28;20043;-74
2021/01/08 04:25:03;;;;;;;23.15;14.32;;;;;;;8.93;100.00;101009.22;5075746;28;20103;-74
2021/01/08 04:27:49;;;;;;;15.20;10.35;;;;;;;8.71;100.00;101010.22;5075545;28;20093;-74
2021/01/08 04:30:34;;;;;;;14.20;9.75;;;;;;;8.73;100.00;101006.72;5075589;28;20016;-74
2021/01/08 04:33:20;;;;;;;18.02;12.18;;;;;;;9.03;100.00;101009.16;5076163;28;20439;-74
2021/01/08 04:36:08;;;;;;;14.48;10.15;;;;;;;8.92;100.00;101023.19;5075636;28;20409;-73
2021/01/08 04:38:54;;;;;;;15.50;10.00;;;;;;;8.84;100.00;101017.13;5076398;28;20021;-74
2021/01/08 04:41:40;;;;;;;14.10;9.85;;;;;;;8.87;100.00;101027.53;5075388;28;20108;-73
2021/01/08 04:44:27;;;;;;;14.63;9.70;;;;;;;8.86;100.00;101031.03;5075900;28;20039;-74
2021/01/08 04:47:15;;;;;;;13.38;9.32;;;;;;;8.81;100.00;101028.44;5076049;28;20024;-74
2021/01/08 04:50:02;;;;;;;13.82;9.45;;;;;;;9.01;100.00;101007.44;5075733;28;20095;-75
2021/01/08 04:52:49;;;;;;;17.33;11.88;;;;;;;9.19;100.00;101010.78;5076041;28;20446;-74
2021/01/08 04:55:37;;;;;;;15.70;10.57;;;;;;;8.92;100.00;101002.28;5075489;28;20036;-74
2021/01/08 04:58:25;;;;;;;20.08;12.57;;;;;;;9.12;100.00;101006.47;5075048;28;20025;-74
2021/01/08 05:01:11;;;;;;;21.77;14.70;;;;;;;9.28;100.00;100995.03;5074789;28;20106;-74
2021/01/08 05:03:57;;;;;;;24.02;14.55;;;;;;;9.01;100.00;100989.13;5074812;28;20036;-75
2021/01/08 05:06:43;;;;;;;26.02;15.20;;;;;;;8.99;100.00;100988.28;5075430;28;20035;-74
2021/01/08 05:09:28;;;;;;;25.95;16.40;;;;;;;8.76;100.00;100990.19;5074735;28;20027;-74
2021/01/08 05:12:14;;;;;;;28.50;18.10;;;;;;;9.00;100.00;100987.38;5074644;28;20048;-74
2021/01/08 05:15:00;;;;;;;27.92;17.33;;;;;;;8.73;100.00;100975.38;5074933;28;20020;-75
2021/01/08 05:17:46;;;;;;;25.25;15.93;;;;;;;8.89;100.00;100984.00;5074729;28;20028;-75
2021/01/08 05:20:32;;;;;;;25.95;16.10;;;;;;;8.52;100.00;100990.31;5074892;28;20028;-73
2021/01/08 05:23:22;;;;;;;22.17;13.73;;;;;;;8.65;100.00;100989.38;5074510;28;20020;-73
2021/01/08 05:26:13;;;;;;;21.55;14.07;;;;;;;8.90;100.00;100999.66;5074759;28;20028;-74
2021/01/08 05:29:01;;;;;;;18.33;13.02;;;;;;;9.07;100.00;100991.69;5075345;28;20028;-73
2021/01/08 05:31:47;;;;;;;20.88;13.55;;;;;;;9.22;100.00;101004.66;5074477;28;20569;-75
2021/01/08 05:34:35;;;;;;;20.67;14.02;;;;;;;8.89;100.00;101004.91;5075145;28;20028;-74
2021/01/08 05:37:22;;;;;;;24.70;16.10;;;;;;;8.33;100.00;101001.69;5074156;28;20043;-74
2021/01/08 05:40:08;;;;;;;21.30;12.63;;;;;;;8.28;100.00;100996.50;5074043;28;20484;-75
2021/01/08 05:42:56;;;;;;;17.50;11.40;;;;;;;8.37;100.00;100993.84;5074298;28;20047;-73
2021/01/08 05:45:43;;;;;;;17.27;11.43;;;;;;;8.22;100.00;100987.81;5074427;28;20378;-74
2021/01/08 05:48:28;;;;;;;19.23;13.10;;;;;;;8.23;100.00;100972.16;5073730;28;20024;-73
2021/01/08 05:51:16;;;;;;;20.10;13.50;;;;;;;7.96;100.00;100966.97;5073820;28;20017;-73
2021/01/08 05:54:03;;;;;;;21.48;13.65;;;;;;;8.30;100.00;100976.47;5074360;28;20032;-75
2021/01/08 05:56:49;;;;;;;17.30;11.95;;;;;;;8.03;100.00;100973.94;5073564;28;20033;-74
2021/01/08 05:59:35;;;;;;;17.52;12.70;;;;;;;8.05;100.00;100976.53;5073862;28;20540;-74
2021/01/08 06:02:22;;;;;;;23.13;15.65;;;;;;;8.27;100.00;100981.72;5073856;28;20036;-74
2021/01/08 06:05:10;;;;;;;20.98;16.10;;;;;;;8.19;100.00;100980.84;5075080;28;20409;-73
2021/01/08 06:07:59;;;;;;;24.30;17.25;;;;;;;8.26;100.00;100973.88;5074222;28;20370;-73
2021/01/08 06:10:50;;;;;;;25.27;18.40;;;;;;;8.03;100.00;100963.50;5074173;28;20090;-74
2021/01/08 06:13:36;;;;;;;27.00;18.45;;;;;;;7.63;100.00;100950.59;5073935;28;20385;-75
2021/01/08 06:16:22;;;;;;;28.48;20.05;;;;;;;7.78;100.00;100942.69;5073402;28;20062;-76
2021/01/08 06:19:08;;;;;;;29.20;20.20;;;;;;;8.06;100.00;100932.19;5073654;28;20028;-75
2021/01/08 06:21:57;;;;;;;29.52;19.52;;;;;;;8.04;100.00;100933.06;5073517;28;20111;-75
2021/01/08 06:24:53;;;;;;;24.45;17.25;;;;;;;7.82;100.00;100934.00;5073542;28;20035;-73
2021/01/08 06:27:44;;;;;;;22.33;16.15;;;;;;;7.82;100.00;100934.88;5073271;28;20028;-73
2021/01/08 06:30:34;;;;;;;21.95;15.82;;;;;;;7.97;100.00;100936.56;5073816;28;20024;-74
2021/01/08 06:33:28;;;;;;;22.50;16.40;;;;;;;8.03;100.00;100933.91;5073282;28;20036;-74
2021/01/08 06:36:18;;;;;;;25.42;16.65;;;;;;;8.14;100.00;100945.19;5074139;28;20038;-72
2021/01/08 06:39:06;;;;;;;23.48;17.00;;;;;;;7.80;100.00;100946.19;5073376;28;20024;-74
2021/01/08 06:41:52;;;;;;;24.00;16.85;;;;;;;7.62;100.00;100959.25;5073765;28;20028;-74
2021/01/08 06:44:38;;;;;;;22.23;15.52;;;;;;;7.33;100.00;100953.22;5073185;28;20030;-73
2021/01/08 06:47:28;;;;;;;22.15;15.38;;;;;;;7.32;100.00;100954.09;5073571;28;20036;-74
2021/01/08 06:50:20;;;;;;;29.42;17.70;;;;;;;7.27;100.00;100961.91;5073054;28;20070;-72
2021/01/08 06:53:11;;;;;;;33.28;22.35;;;;;;;7.40;100.00;100957.56;5073953;28;20028;-74
2021/01/08 06:56:02;;;;;;;22.48;15.20;;;;;;;7.71;100.00;100956.63;5073754;28;20358;-74
2021/01/08 06:58:54;;;;;;;21.05;14.52;;;;;;;7.75;100.00;100953.13;5073788;28;20048;-73
2021/01/08 07:01:54;;;;;;;22.23;14.70;;;;;;;7.18;100.00;100961.91;5072766;28;20169;-73
2021/01/08 07:04:40;;;;;;;24.40;16.92;;;;;;;7.47;100.00;100960.16;5073576;28;20028;-74
2021/01/08 07:07:27;;;;;;;22.25;15.18;;;;;;;6.95;100.00;100962.78;5073103;28;20047;-74
2021/01/08 07:10:18;;;;;;;25.58;16.63;;;;;;;7.43;100.00;100962.78;5075300;28;20366;-74
2021/01/08 07:13:04;;;;;;;30.10;19.00;;;;;;;7.58;100.00;100968.81;5076995;28;20058;-73
2021/01/08 07:15:50;;;;;;;31.88;19.90;;;;;;;7.43;100.00;100968.00;5077061;28;20034;-73
2021/01/08 07:18:36;;;;;;;31.15;20.35;;;;;;;6.81;100.00;100959.25;5076486;28;20052;-74
2021/01/08 07:21:23;;;;;;;31.50;20.67;;;;;;;6.86;100.00;100958.41;5076701;28;20032;-74
2021/01/08 07:24:11;;;;;;;37.92;24.65;;;;;;;6.54;100.00;100957.47;5076396;28;20358;-74
2021/01/08 07:27:16;;;;;;;35.20;23.08;;;;;;;6.84;100.00;100949.75;5076708;28;20035;-74
2021/01/08 07:30:05;;;;;;;38.83;25.92;;;;;;;6.83;100.00;100961.00;5076359;28;20024;-75
2021/01/08 07:32:52;;;;;;;41.00;27.25;;;;;;;7.19;100.00;100968.00;5076473;28;20032;-74
2021/01/08 07:35:41;;;;;;;42.28;27.08;;;;;;;7.47;100.00;100959.28;5076332;28;20032;-74
2021/01/08 07:38:33;;;;;;;35.25;24.30;;;;;;;7.06;100.00;100951.47;5076486;28;20020;-74
2021/01/08 07:41:45;;;;;;;33.95;22.60;;;;;;;7.32;100.00;100956.69;5076981;28;20086;-74
2021/01/08 07:44:33;;;;;;;29.90;19.85;;;;;;;7.34;100.00;100961.03;5075590;28;20362;-74
2021/01/08 07:47:29;;;;;;;30.92;22.02;;;;;;;7.41;100.00;100954.06;5076533;28;20040;-74
2021/01/08 07:50:17;;;;;;;23.13;16.67;;;;;;;7.48;100.00;100953.19;5076937;28;20028;-75
2021/01/08 07:53:03;;;;;;;18.02;11.30;;;;;;;7.24;100.00;100934.97;5076120;28;20032;-75
2021/01/08 07:56:06;;;;;;;16.35;11.88;;;;;;;7.30;100.00;100920.19;5075595;28;20028;-74
2021/01/08 07:58:54;;;;;;;18.15;12.30;;;;;;;7.05;100.00;100928.91;5076260;28;20419;-74
2021/01/08 08:01:40;;;;;;;16.77;11.25;;;;;;;7.02;100.00;100934.13;5075816;28;20043;-75
2021/01/08 08:04:28;;;;;;;19.48;12.15;;;;;;;7.09;100.00;100935.84;5076439;28;20054;-74
2021/01/08 08:07:14;;;;;;;15.00;10.90;;;;;;;6.64;100.00;100930.63;5075946;28;20030;-75
2021/01/08 08:10:00;;;;;;;16.63;11.45;;;;;;;6.75;100.00;100915.84;5075811;28;20090;-73
2021/01/08 08:12:50;;;;;;;14.32;10.90;;;;;;;6.56;100.00;100916.72;5075581;28;20421;-74
2021/01/08 08:15:46;;;;;;;15.57;11.15;;;;;;;6.56;100.00;100915.84;5075670;28;20369;-75
2021/01/08 08:18:33;;;;;;;14.90;9.02;;;;;;;6.37;100.00;100899.31;5075472;28;20373;-74
2021/01/08 08:21:19;;;;;;;13.20;9.38;;;;;;;6.79;100.00;100893.31;5075135;28;20028;-74
2021/01/08 08:24:06;;;;;;;14.13;9.95;;;;;;;6.70;100.00;100894.16;5076076;28;20032;-74
2021/01/08 08:26:52;;;;;;;12.68;9.32;;;;;;;6.96;100.00;100908.09;5061720;28;20032;-74
2021/01/08 08:29:37;;;;;;;14.95;9.98;;;;;;;6.75;100.00;100896.78;5076142;28;20085;-74
2021/01/08 08:32:25;;;;;;;16.27;10.73;;;;;;;6.52;100.00;100893.28;5076563;28;20066;-75
2021/01/08 08:35:11;;;;;;;17.45;12.00;;;;;;;6.58;100.00;100891.53;5075311;28;20025;-75
2021/01/08 08:37:57;;;;;;;16.58;10.32;;;;;;;6.39;100.00;100881.13;5075990;28;20123;-74
2021/01/08 08:40:43;;;;;;;14.07;9.75;;;;;;;6.29;100.00;100885.44;5075402;28;20105;-74
2021/01/08 08:43:29;;;;;;;16.02;9.80;;;;;;;6.40;100.00;100885.44;5075136;28;20107;-74
2021/01/08 08:46:14;;;;;;;14.98;10.35;;;;;;;6.76;100.00;100891.59;5075178;28;20028;-74
2021/01/08 08:49:00;;;;;;;15.45;9.48;;;;;;;6.58;100.00;100880.25;5075057;28;20103;-74
2021/01/08 08:51:51;;;;;;;14.00;9.23;;;;;;;6.15;100.00;100857.66;5075912;28;20024;-74
2021/01/08 08:54:37;;;;;;;20.67;12.73;;;;;;;6.32;100.00;100862.03;5075644;28;20021;-74
2021/01/08 08:57:23;;;;;;;16.10;10.98;;;;;;;6.35;100.00;100872.41;5076753;28;20107;-73
2021/01/08 09:00:18;;;;;;;34.83;18.27;;;;;;;6.15;100.00;100855.88;5074906;28;20430;-74
2021/01/08 09:03:19;;;;;;;32.10;20.15;;;;;;;6.17;100.00;100832.50;5074895;28;20024;-74
2021/01/08 09:06:09;;;;;;;14.15;10.07;;;;;;;6.12;100.00;100849.81;5074640;28;20032;-75
2021/01/08 09:08:55;;;;;;;11.02;8.55;;;;;;;6.10;100.00;100835.97;5075523;28;20143;-74
2021/01/08 09:12:27;;;;;;;10.15;7.60;;;;;;;6.20;100.00;100812.56;5075353;28;20040;-76
2021/01/08 09:15:28;;;;;;;13.88;9.68;;;;;;;6.51;100.00;100801.31;5059706;28;20115;-75
2021/01/08 09:18:34;;;;;;;10.80;7.95;;;;;;;6.25;100.00;100800.44;5075202;28;20028;-75
2021/01/08 09:21:37;;;;;;;13.10;9.20;;;;;;;6.30;100.00;100784.84;5076043;28;20420;-75
2021/01/08 09:24:25;;;;;;;20.27;10.43;;;;;;;6.26;100.00;100767.50;5078351;28;20404;-76
2021/01/08 09:27:11;;;;;;;15.85;10.68;;;;;;;6.12;100.00;100783.09;5074936;28;20036;-75
2021/01/08 09:30:12;;;;;;;16.65;11.80;;;;;;;6.04;100.00;100763.13;5074452;28;20024;-74
2021/01/08 09:32:58;;;;;;;16.95;12.43;;;;;;;6.12;100.00;100753.59;5074203;28;20107;-75
2021/01/08 09:35:44;;;;;;;21.45;14.38;;;;;;;5.91;100.00;100738.81;5074767;28;20425;-74
2021/01/08 09:38:36;;;;;;;23.58;14.38;;;;;;;6.10;100.00;100726.72;5075066;28;20028;-75
2021/01/08 09:41:22;;;;;;;20.38;14.30;;;;;;;5.94;100.00;100735.38;5074936;28;20078;-73
2021/01/08 09:44:12;;;;;;;26.60;15.98;;;;;;;5.97;100.00;100740.56;5074578;28;20103;-75
2021/01/08 09:47:00;;;;;;;25.10;16.77;;;;;;;6.22;100.00;100739.75;5074257;28;20369;-75
2021/01/08 09:49:51;;;;;;;15.93;12.63;;;;;;;6.04;100.00;100738.00;5073743;28;20040;-75
2021/01/08 09:52:36;;;;;;;16.90;11.25;;;;;;;5.75;100.00;100728.38;5074592;28;20119;-75
2021/01/08 09:55:27;;;;;;;16.20;12.27;;;;;;;5.86;100.00;100726.69;5073703;28;20507;-74
2021/01/08 09:58:14;;;;;;;19.05;13.57;;;;;;;5.88;100.00;100722.34;5074968;28;20039;-74
2021/01/08 10:01:00;;;;;;;17.45;12.65;;;;;;;5.88;100.00;100731.03;5073968;28;20450;-76
2021/01/08 10:03:49;;;;;;;18.08;13.20;;;;;;;6.03;100.00;100712.81;5075076;28;20036;-76
2021/01/08 10:06:54;;;;;;;16.52;12.15;;;;;;;6.01;100.00;100708.50;5073290;28;20064;-75
2021/01/08 10:09:52;;;;;;;18.08;12.65;;;;;;;5.75;100.00;100695.47;5074228;28;20382;-74
2021/01/08 10:12:49;;;;;;;13.75;10.70;;;;;;;5.65;100.00;100685.03;5073266;28;20048;-74
2021/01/08 10:15:40;;;;;;;16.08;11.55;;;;;;;5.84;100.00;100668.63;5074360;28;20050;-74
2021/01/08 10:18:27;;;;;;;17.33;11.15;;;;;;;6.08;100.00;100685.13;5073235;28;20060;-74
2021/01/08 10:21:13;;;;;;;14.02;10.48;;;;;;;5.76;100.00;100685.91;5074426;28;20431;-74
2021/01/08 10:23:59;;;;;;;16.42;11.65;;;;;;;5.88;100.00;100680.75;5073315;28;20415;-74
2021/01/08 10:26:44;;;;;;;11.82;9.38;;;;;;;5.95;100.00;100682.50;5074577;28;20036;-74
2021/01/08 10:29:30;;;;;;;14.98;10.25;;;;;;;5.63;100.00;100669.44;5075038;28;20024;-75
2021/01/08 10:32:16;;;;;;;14.55;10.95;;;;;;;5.85;100.00;100676.44;5074399;28;20031;-75
2021/01/08 10:35:02;;;;;;;15.45;10.52;;;;;;;5.47;100.00;100664.22;5074479;28;20028;-75
2021/01/08 10:37:47;;;;;;;16.58;12.35;;;;;;;5.69;100.00;100671.16;5073689;28;20025;-75
2021/01/08 10:40:33;;;;;;;16.23;12.68;;;;;;;5.75;100.00;100676.41;5073713;28;20382;-75
2021/01/08 10:43:22;;;;;;;15.65;11.20;;;;;;;5.90;100.00;100676.44;5073186;28;20036;-75
2021/01/08 10:46:08;;;;;;;14.85;10.45;;;;;;;5.65;100.00;100667.72;5073422;28;20029;-75
2021/01/08 10:48:54;;;;;;;13.68;9.77;;;;;;;5.57;100.00;100668.53;5073178;28;20029;-75
2021/01/08 10:51:39;;;;;;;15.52;11.18;;;;;;;5.69;100.00;100653.84;5074997;28;20032;-73
2021/01/08 10:54:33;;;;;;;14.65;9.93;;;;;;;5.54;100.00;100648.63;5073537;28;20024;-74
2021/01/08 10:57:20;;;;;;;12.73;9.50;;;;;;;5.62;100.00;100649.50;5074680;28;20029;-74
2021/01/08 11:00:11;;;;;;;13.90;10.07;;;;;;;5.53;100.00;100659.00;5073545;28;20028;-76
2021/01/08 11:02:57;;;;;;;16.58;11.35;;;;;;;5.87;100.00;100653.03;5073532;28;20032;-75
2021/01/08 11:05:43;;;;;;;16.45;11.32;;;;;;;5.93;100.00;100651.31;5073030;28;20348;-74
2021/01/08 11:08:29;;;;;;;15.85;11.82;;;;;;;6.31;100.00;100657.34;5073694;28;20027;-74
2021/01/08 11:11:15;;;;;;;19.27;13.85;;;;;;;6.44;100.00;100650.38;5073664;28;22144;-75
2021/01/08 11:14:01;;;;;;;17.45;12.55;;;;;;;6.42;100.00;100639.09;5073486;28;20025;-75
2021/01/08 11:16:47;;;;;;;20.60;13.95;;;;;;;6.13;100.00;100623.56;5073614;28;20031;-75
2021/01/08 11:19:33;;;;;;;19.83;13.93;;;;;;;6.42;100.00;100613.97;5073363;28;20362;-75
2021/01/08 11:22:18;;;;;;;17.65;13.05;;;;;;;5.88;100.00;100615.78;5072922;28;20039;-74
2021/01/08 11:25:06;;;;;;;17.63;12.68;;;;;;;6.08;100.00;100617.50;5072981;28;20036;-75
2021/01/08 11:27:51;;;;;;;16.40;12.20;;;;;;;5.94;100.00;100624.44;5073386;28;20033;-74
2021/01/08 11:30:37;;;;;;;18.52;12.15;;;;;;;5.93;100.00;100620.09;5072725;28;20020;-74
2021/01/08 11:33:23;;;;;;;18.10;12.68;;;;;;;6.08;100.00;100616.63;5073639;28;20020;-74
2021/01/08 11:36:09;;;;;;;19.80;13.57;;;;;;;5.99;100.00;100608.84;5072790;28;20017;-74
2021/01/08 11:38:55;;;;;;;17.65;12.70;;;;;;;6.09;100.00;100620.94;5073103;28;20033;-74
2021/01/08 11:41:40;;;;;;;15.75;11.70;;;;;;;6.13;100.00;100614.88;5072755;28;20029;-75
2021/01/08 11:44:26;;;;;;;17.10;12.45;;;;;;;6.03;100.00;100605.38;5072918;28;20032;-74
2021/01/08 11:47:12;;;;;;;20.67;14.35;;;;;;;5.85;100.00;100601.03;5073550;28;20450;-75
2021/01/08 11:49:58;;;;;;;24.95;17.10;;;;;;;6.26;100.00;100599.25;5072650;28;20086;-75
2021/01/08 11:52:43;;;;;;;20.00;15.07;;;;;;;6.05;100.00;100606.22;5072625;28;20024;-74
2021/01/08 11:55:29;;;;;;;23.75;15.82;;;;;;;6.35;100.00;100620.03;5074096;28;20086;-74
2021/01/08 11:58:15;;;;;;;18.25;13.45;;;;;;;6.44;100.00;100630.44;5077425;28;20466;-74
2021/01/08 12:01:01;;;;;;;15.40;10.57;;;;;;;6.16;100.00;100628.75;5076042;28;20024;-74
2021/01/08 12:03:46;;;;;;;13.27;9.43;;;;;;;6.17;100.00;100627.00;5077369;28;20033;-74
2021/01/08 12:06:33;;;;;;;10.77;8.05;;;;;;;6.03;100.00;100616.63;5076578;28;20029;-75
2021/01/08 12:09:19;;;;;;;10.70;8.52;;;;;;;5.95;100.00;100607.09;5077694;28;20032;-75
2021/01/08 12:12:07;;;;;;;11.18;8.85;;;;;;;6.06;100.00;100613.19;5076136;28;20115;-75
2021/01/08 12:14:53;;;;;;;9.88;7.20;;;;;;;5.71;100.00;100615.75;5076571;28;20462;-74
2021/01/08 12:17:40;;;;;;;11.65;8.27;;;;;;;5.71;100.00;100610.56;5076459;28;20419;-74
2021/01/08 12:20:25;;;;;;;11.50;8.63;;;;;;;6.12;100.00;100607.94;5075857;28;20420;-74
2021/01/08 12:23:12;;;;;;;13.25;8.48;;;;;;;5.75;100.00;100604.50;5075553;28;20027;-75
2021/01/08 12:25:58;;;;;;;11.82;8.38;;;;;;;5.82;100.00;100600.19;5075292;28;20021;-74
2021/01/08 12:35:01;;;;;;;12.48;7.55;;;;;;;6.44;100.00;100617.44;5641651;22;20057;-75
2021/01/08 12:37:49;;;;;;;10.13;8.25;;;;;;;6.39;100.00;100616.56;5055553;28;20470;-74
2021/01/08 12:40:34;;;;;;;24.15;16.38;;;;;;;6.15;100.00;100606.19;5054999;28;20037;-75
2021/01/08 12:43:22;;;;;;;13.70;10.80;;;;;;;6.27;100.00;100613.13;5055854;28;20039;-75
2021/01/08 12:46:08;;;;;;;14.05;9.57;;;;;;;6.73;100.00;100617.34;5056128;28;20094;-73
2021/01/08 12:48:54;;;;;;;15.77;11.55;;;;;;;6.55;100.00;100631.25;5055832;28;20028;-75
2021/01/08 12:51:39;;;;;;;17.70;12.05;;;;;;;6.69;100.00;100623.41;5055428;28;20069;-75